Time;durP1;ratioP1;P1;durP2;ratioP2;P2;SDS_P1;SDS_P2;PMS_P1;PMS_P2;Temp;Humidity;BMP_temperature;BMP_pressure;BME280_temperature;BME280_humidity;BME280_pressure;Samples;Min_cycle;Max_cycle;Signal;HPM_P1;HPM_P2
2023/06/14 00:00:40;;;;;;;14.60;6.97;;;;;;;17.09;100.00;94313.78;5116179;28;20213;-79
2023/06/14 00:03:08;;;;;;;11.75;9.05;;;;;;;17.01;100.00;94313.72;5129334;28;20663;-78
2023/06/14 00:05:40;;;;;;;8.65;5.53;;;;;;;16.93;100.00;94314.84;5129040;28;20204;-77
2023/06/14 00:08:08;;;;;;;8.25;5.75;;;;;;;16.95;100.00;94320.69;5129205;27;20201;-78
2023/06/14 00:10:35;;;;;;;12.13;5.47;;;;;;;16.81;100.00;94312.34;5132898;27;20607;-78
2023/06/14 00:13:02;;;;;;;9.27;5.50;;;;;;;16.82;100.00;94305.69;5134028;27;20341;-78
2023/06/14 00:15:29;;;;;;;8.25;5.32;;;;;;;16.70;100.00;94303.22;5134065;27;20209;-78
2023/06/14 00:17:56;;;;;;;9.63;5.38;;;;;;;16.74;100.00;94306.00;5131993;27;20666;-78
2023/06/14 00:20:23;;;;;;;7.93;5.57;;;;;;;16.72;100.00;94300.91;5121342;27;20236;-78
2023/06/14 00:22:51;;;;;;;7.55;5.30;;;;;;;16.77;100.00;94292.38;5133397;27;20212;-78
2023/06/14 00:25:18;;;;;;;11.00;4.90;;;;;;;16.73;100.00;94297.03;5133627;27;20686;-78
2023/06/14 00:27:45;;;;;;;8.60;5.10;;;;;;;16.70;100.00;94293.06;5133491;27;20204;-78
2023/06/14 00:30:13;;;;;;;10.70;4.70;;;;;;;16.67;100.00;94291.09;5133783;27;20229;-78
2023/06/14 00:32:42;;;;;;;8.48;5.00;;;;;;;16.63;100.00;94297.69;5133308;27;20605;-78
2023/06/14 00:35:09;;;;;;;6.07;4.72;;;;;;;16.52;100.00;94291.28;5133577;27;20300;-78
2023/06/14 00:37:36;;;;;;;8.93;5.47;;;;;;;16.53;100.00;94298.34;5133938;27;20205;-78
2023/06/14 00:40:05;;;;;;;7.40;4.78;;;;;;;16.47;100.00;94297.09;5133191;27;20205;-77
2023/06/14 00:42:33;;;;;;;5.97;4.43;;;;;;;16.40;100.00;94295.03;5132921;27;20674;-78
2023/06/14 00:45:01;;;;;;;7.25;4.93;;;;;;;16.35;100.00;94290.72;5133177;27;20699;-78
2023/06/14 00:47:27;;;;;;;6.00;4.47;;;;;;;16.44;100.00;94295.09;5129977;27;20202;-78
2023/06/14 00:49:56;;;;;;;9.43;4.90;;;;;;;16.49;100.00;94281.09;5122768;27;20225;-78
2023/06/14 00:52:24;;;;;;;9.07;5.55;;;;;;;16.59;100.00;94283.16;5113265;27;20648;-78
2023/06/14 00:54:50;;;;;;;8.63;5.18;;;;;;;16.75;100.00;94278.28;5124924;27;20724;-78
2023/06/14 00:57:20;;;;;;;7.88;5.22;;;;;;;16.80;100.00;94282.66;5132920;27;20205;-78
2023/06/14 00:59:49;;;;;;;7.47;5.88;;;;;;;16.88;100.00;94276.84;5120170;27;20204;-78
2023/06/14 01:02:17;;;;;;;7.38;5.05;;;;;;;16.90;100.00;94274.53;5112424;28;20679;-78
2023/06/14 01:04:47;;;;;;;9.00;4.93;;;;;;;16.77;100.00;94281.44;5111653;28;20229;-78
2023/06/14 01:07:26;;;;;;;8.07;5.30;;;;;;;16.86;100.00;94281.91;5111371;28;20564;-78
2023/06/14 01:10:11;;;;;;;8.15;4.93;;;;;;;16.94;100.00;94264.41;5111454;28;20224;-78
2023/06/14 01:12:47;;;;;;;6.50;4.63;;;;;;;16.80;100.00;94277.97;5112490;28;20208;-77
2023/06/14 01:15:15;;;;;;;9.07;6.03;;;;;;;16.81;100.00;94279.50;5118880;27;20272;-78
2023/06/14 01:17:43;;;;;;;15.23;4.97;;;;;;;16.88;100.00;94276.84;5132674;27;20239;-78
2023/06/14 01:20:14;;;;;;;6.90;5.00;;;;;;;16.84;100.00;94275.25;5131849;27;20578;-78
2023/06/14 01:22:51;;;;;;;7.80;5.18;;;;;;;16.85;100.00;94279.56;5118710;27;20190;-78
2023/06/14 01:25:20;;;;;;;10.02;5.47;;;;;;;16.87;100.00;94275.28;5132573;27;20201;-78
2023/06/14 01:27:49;;;;;;;6.80;4.75;;;;;;;16.84;100.00;94278.75;5132656;27;20197;-78
2023/06/14 01:30:16;;;;;;;6.97;5.05;;;;;;;16.87;100.00;94282.69;5132245;27;20236;-78
2023/06/14 01:32:44;;;;;;;7.60;4.88;;;;;;;16.81;100.00;94279.50;5132365;27;20242;-78
2023/06/14 01:35:11;;;;;;;7.57;4.93;;;;;;;16.96;100.00;94272.22;5132570;27;20212;-78
2023/06/14 01:37:40;;;;;;;8.95;5.00;;;;;;;16.94;100.00;94267.16;5132996;27;20217;-78
2023/06/14 01:40:11;;;;;;;7.18;4.63;;;;;;;16.68;100.00;94267.25;5132529;27;20212;-78
2023/06/14 01:42:39;;;;;;;6.75;4.43;;;;;;;16.74;100.00;94273.97;5132526;27;20201;-78
2023/06/14 01:45:07;;;;;;;8.70;4.55;;;;;;;16.74;100.00;94276.72;5132325;27;20205;-78
2023/06/14 01:47:35;;;;;;;10.02;5.15;;;;;;;16.79;100.00;94275.59;5132026;27;21066;-78
2023/06/14 01:50:03;;;;;;;7.07;4.90;;;;;;;16.64;100.00;94277.41;5131768;27;20227;-78
2023/06/14 01:52:30;;;;;;;6.63;4.32;;;;;;;16.60;100.00;94273.78;5111823;28;20664;-78
2023/06/14 01:54:57;;;;;;;5.63;3.90;;;;;;;16.68;100.00;94272.72;5111191;28;20676;-78
2023/06/14 01:57:27;;;;;;;6.78;4.75;;;;;;;16.61;100.00;94280.84;5111612;28;20205;-78
2023/06/14 01:59:53;;;;;;;6.43;3.85;;;;;;;16.59;100.00;94280.41;5111611;27;20205;-78
2023/06/14 02:02:20;;;;;;;6.07;4.20;;;;;;;16.61;100.00;94287.09;5132013;27;20201;-77
2023/06/14 02:04:47;;;;;;;7.20;4.80;;;;;;;16.60;100.00;94287.47;5131935;27;20205;-78
2023/06/14 02:07:14;;;;;;;7.75;4.85;;;;;;;16.54;100.00;94278.00;5124083;27;20679;-78
2023/06/14 02:09:41;;;;;;;5.88;4.25;;;;;;;16.51;100.00;94295.19;5125486;27;20867;-77
2023/06/14 02:12:09;;;;;;;5.88;4.00;;;;;;;16.55;100.00;94296.78;5131791;27;20213;-78
2023/06/14 02:14:38;;;;;;;6.57;4.45;;;;;;;16.54;100.00;94297.16;5130661;27;20205;-77
2023/06/14 02:17:06;;;;;;;5.57;3.83;;;;;;;16.60;100.00;94301.13;5131517;27;20219;-77
2023/06/14 02:19:33;;;;;;;6.60;4.30;;;;;;;16.73;100.00;94307.97;5131529;27;20274;-78
2023/06/14 02:22:00;;;;;;;7.65;4.53;;;;;;;16.83;100.00;94301.03;5131139;27;20197;-77
2023/06/14 02:24:26;;;;;;;9.43;4.68;;;;;;;16.90;100.00;94301.91;5131330;27;20212;-77
2023/06/14 02:26:53;;;;;;;6.03;4.05;;;;;;;16.93;100.00;94300.38;5130903;27;20222;-77
2023/06/14 02:29:20;;;;;;;7.45;4.50;;;;;;;16.82;100.00;94311.19;5130389;27;20204;-77
2023/06/14 02:31:49;;;;;;;5.40;4.00;;;;;;;16.75;100.00;94310.31;5129294;27;20699;-77
2023/06/14 02:34:17;;;;;;;7.43;4.55;;;;;;;16.68;100.00;94305.53;5131405;27;20200;-77
2023/06/14 02:36:45;;;;;;;8.73;4.07;;;;;;;16.56;100.00;94306.56;5131107;27;20578;-77
2023/06/14 02:39:12;;;;;;;4.55;3.72;;;;;;;16.40;100.00;94305.97;5130941;27;20880;-77
2023/06/14 02:41:39;;;;;;;6.45;4.32;;;;;;;16.24;100.00;94311.66;5130761;27;20212;-77
2023/06/14 02:44:06;;;;;;;5.68;4.35;;;;;;;16.18;100.00;94304.94;5130663;27;20328;-77
2023/06/14 02:46:33;;;;;;;7.05;4.50;;;;;;;16.07;100.00;94306.72;5121057;27;20202;-77
2023/06/14 02:49:02;;;;;;;8.30;4.60;;;;;;;16.12;100.00;94300.97;5126831;27;20225;-77
2023/06/14 02:51:28;;;;;;;7.03;4.40;;;;;;;16.23;100.00;94307.34;5119216;27;20221;-77
2023/06/14 02:53:55;;;;;;;7.07;4.28;;;;;;;16.26;100.00;94306.59;5110164;28;20197;-77
2023/06/14 02:56:22;;;;;;;6.57;4.22;;;;;;;16.33;100.00;94309.41;5110519;28;20248;-78
2023/06/14 02:58:49;;;;;;;5.63;4.25;;;;;;;16.26;100.00;94311.28;5119015;27;20198;-77
2023/06/14 03:01:16;;;;;;;7.07;4.60;;;;;;;16.19;100.00;94311.97;5113197;27;20216;-77
2023/06/14 03:03:43;;;;;;;6.05;4.57;;;;;;;16.40;100.00;94313.41;5130356;27;20201;-78
2023/06/14 03:06:12;;;;;;;5.78;4.57;;;;;;;16.46;100.00;94320.13;5130733;27;20201;-77
2023/06/14 03:08:39;;;;;;;10.23;4.90;;;;;;;16.50;100.00;94320.94;5130693;27;20201;-77
2023/06/14 03:11:06;;;;;;;5.50;4.10;;;;;;;16.42;100.00;94324.75;5130283;27;20229;-77
2023/06/14 03:13:33;;;;;;;6.03;4.70;;;;;;;16.43;100.00;94316.16;5130186;27;20661;-77
2023/06/14 03:16:02;;;;;;;7.00;5.20;;;;;;;16.55;100.00;94317.88;5130125;27;20204;-77
2023/06/14 03:18:29;;;;;;;7.88;5.20;;;;;;;16.44;100.00;94327.91;5130449;27;20254;-77
2023/06/14 03:20:56;;;;;;;6.90;4.80;;;;;;;16.33;100.00;94328.56;5117219;27;20226;-77
2023/06/14 03:23:25;;;;;;;6.35;4.85;;;;;;;16.31;100.00;94328.13;5129582;27;20204;-77
2023/06/14 03:25:52;;;;;;;5.82;4.57;;;;;;;16.27;100.00;94324.56;5130294;27;20327;-77
2023/06/14 03:28:18;;;;;;;11.40;5.32;;;;;;;16.33;100.00;94328.56;5130141;27;20201;-77
2023/06/14 03:30:45;;;;;;;8.48;4.95;;;;;;;16.28;100.00;94323.41;5129974;27;20636;-77
2023/06/14 03:33:12;;;;;;;9.63;4.72;;;;;;;16.22;100.00;94327.63;5129741;27;20207;-77
2023/06/14 03:35:39;;;;;;;6.88;4.93;;;;;;;16.18;100.00;94326.78;5129536;27;20204;-77
2023/06/14 03:38:06;;;;;;;7.60;4.82;;;;;;;16.06;100.00;94331.69;5129175;27;20244;-77
2023/06/14 03:40:34;;;;;;;7.53;4.90;;;;;;;16.02;100.00;94331.63;5115944;27;20205;-77
2023/06/14 03:43:01;;;;;;;7.65;5.30;;;;;;;16.00;100.00;94336.69;5129002;27;20224;-76
2023/06/14 03:45:28;;;;;;;8.52;5.25;;;;;;;16.06;100.00;94335.22;5130009;27;20208;-76
2023/06/14 03:47:56;;;;;;;8.43;5.43;;;;;;;16.00;100.00;94336.69;5129771;27;20240;-77
2023/06/14 03:50:23;;;;;;;6.63;4.97;;;;;;;16.12;100.00;94332.97;5127105;28;20240;-77
2023/06/14 03:52:50;;;;;;;7.65;5.20;;;;;;;16.20;100.00;94331.88;5108348;28;20201;-77
2023/06/14 03:55:17;;;;;;;6.38;5.13;;;;;;;16.39;100.00;94339.19;5109405;28;20561;-77
2023/06/14 03:57:45;;;;;;;10.07;5.60;;;;;;;16.33;100.00;94339.50;5109671;28;20202;-77
2023/06/14 04:00:13;;;;;;;10.88;6.13;;;;;;;16.44;100.00;94336.09;5109640;28;20201;-77
2023/06/14 04:02:40;;;;;;;8.98;5.72;;;;;;;16.51;100.00;94339.72;5109459;28;20304;-77
2023/06/14 04:05:08;;;;;;;8.57;5.10;;;;;;;16.74;100.00;94345.09;5108993;28;20209;-78
2023/06/14 04:07:39;;;;;;;8.75;5.25;;;;;;;16.86;100.00;94339.38;5109214;28;20297;-78
2023/06/14 04:10:08;;;;;;;8.02;5.07;;;;;;;17.12;100.00;94332.19;5109384;28;20286;-78
2023/06/14 04:12:35;;;;;;;8.77;5.25;;;;;;;17.38;100.00;94337.53;5109100;28;20668;-78
2023/06/14 04:15:05;;;;;;;10.30;5.50;;;;;;;17.55;100.00;94334.16;5128480;28;20220;-78
2023/06/14 04:17:32;;;;;;;8.68;5.75;;;;;;;17.56;100.00;94338.47;5129720;28;20650;-77
2023/06/14 04:20:00;;;;;;;11.18;5.50;;;;;;;17.50;100.00;94331.78;5129428;28;20201;-80
2023/06/14 04:22:28;;;;;;;8.98;5.40;;;;;;;17.85;100.00;94330.50;5129957;28;20240;-81
2023/06/14 04:24:56;;;;;;;9.02;5.85;;;;;;;18.08;100.00;94325.56;5129825;28;20283;-80
2023/06/14 04:27:25;;;;;;;8.18;5.05;;;;;;;18.31;99.16;94334.31;5129315;28;20200;-80
2023/06/14 04:29:56;;;;;;;9.50;5.55;;;;;;;18.56;96.01;94333.66;5116745;28;20723;-80
2023/06/14 04:32:26;;;;;;;9.10;5.47;;;;;;;18.96;93.64;94335.41;5130181;28;20760;-79
2023/06/14 04:34:54;;;;;;;9.45;4.55;;;;;;;19.67;90.20;94330.84;5129816;28;20233;-79
2023/06/14 04:37:22;;;;;;;5.85;5.25;;;;;;;20.42;86.77;94328.81;5129689;28;20205;-79
2023/06/14 04:39:48;;;;;;;6.78;5.18;;;;;;;20.96;84.03;94326.63;5129728;28;20250;-79
2023/06/14 04:42:16;;;;;;;6.75;5.53;;;;;;;21.43;81.02;94327.19;5127240;28;20732;-79
2023/06/14 04:44:43;;;;;;;9.57;5.70;;;;;;;22.47;77.07;94317.63;5117953;28;20582;-79
2023/06/14 04:47:11;;;;;;;7.00;4.93;;;;;;;23.87;70.88;94315.38;5126442;28;20212;-80
2023/06/14 04:49:40;;;;;;;5.70;5.10;;;;;;;25.89;64.43;94321.66;5118905;28;20883;-80
2023/06/14 04:52:07;;;;;;;5.38;4.88;;;;;;;27.37;58.06;94307.75;5112350;28;20282;-79
2023/06/14 04:54:36;;;;;;;6.53;4.38;;;;;;;26.59;58.70;94321.09;5108991;28;20544;-79
2023/06/14 04:57:04;;;;;;;7.82;4.90;;;;;;;25.64;61.90;94329.78;5116068;27;20207;-80
2023/06/14 04:59:33;;;;;;;5.95;5.28;;;;;;;24.32;65.28;94337.19;5121931;27;20197;-79
2023/06/14 05:02:00;;;;;;;7.95;5.60;;;;;;;23.14;69.49;94340.13;5112320;28;20205;-79
2023/06/14 05:04:27;;;;;;;9.63;6.88;;;;;;;22.43;70.04;94349.19;5112814;28;20314;-78
2023/06/14 05:06:56;;;;;;;8.93;6.82;;;;;;;22.14;70.80;94343.94;5112865;28;20220;-78
2023/06/14 05:09:23;;;;;;;10.52;6.53;;;;;;;22.13;72.49;94347.16;5112372;28;20216;-78
2023/06/14 05:11:50;;;;;;;7.25;6.20;;;;;;;22.05;73.86;94351.16;5112670;28;20280;-80
2023/06/14 05:14:17;;;;;;;8.52;6.40;;;;;;;22.14;73.40;94345.97;5112563;28;20697;-80
2023/06/14 05:16:44;;;;;;;8.07;7.28;;;;;;;22.54;70.52;94349.91;5112602;28;20637;-79
2023/06/14 05:19:11;;;;;;;8.38;7.45;;;;;;;23.89;67.24;94346.19;5112268;28;20296;-78
2023/06/14 05:21:38;;;;;;;10.05;7.13;;;;;;;25.15;63.15;94349.03;5118003;27;20201;-78
2023/06/14 05:24:08;;;;;;;13.57;7.28;;;;;;;26.54;59.41;94347.41;5133396;27;20201;-79
2023/06/14 05:26:35;;;;;;;7.97;7.07;;;;;;;27.86;55.35;94340.88;5133420;27;20223;-80
2023/06/14 05:29:02;;;;;;;11.23;7.80;;;;;;;26.92;55.37;94354.38;5133002;27;20277;-82
2023/06/14 05:31:29;;;;;;;8.50;6.97;;;;;;;27.06;56.06;94365.13;5133588;27;20255;-80
2023/06/14 05:33:56;;;;;;;9.55;7.90;;;;;;;27.14;55.39;94360.91;5132932;27;20201;-80
2023/06/14 05:36:23;;;;;;;10.55;8.10;;;;;;;26.73;56.03;94362.41;5132758;27;20220;-80
2023/06/14 05:38:50;;;;;;;10.52;8.43;;;;;;;25.13;58.56;94368.91;5133222;27;20209;-83
2023/06/14 05:41:20;;;;;;;10.07;8.68;;;;;;;24.12;61.82;94366.75;5133478;27;20209;-80
2023/06/14 05:43:47;;;;;;;10.48;8.45;;;;;;;23.43;64.47;94376.47;5117539;27;20217;-80
2023/06/14 05:46:14;;;;;;;12.02;9.43;;;;;;;23.20;66.15;94375.19;5111809;28;20208;-80
2023/06/14 05:48:41;;;;;;;11.60;9.40;;;;;;;22.41;69.79;94377.25;5126243;27;20753;-79
2023/06/14 05:51:08;;;;;;;12.73;10.05;;;;;;;21.42;73.97;94381.53;5123072;27;20217;-79
2023/06/14 05:53:35;;;;;;;12.50;10.10;;;;;;;21.25;75.83;94394.19;5111704;28;20205;-81
2023/06/14 05:56:02;;;;;;;13.98;9.48;;;;;;;21.87;74.20;94390.66;5111107;28;20301;-79
2023/06/14 05:58:30;;;;;;;11.63;9.70;;;;;;;20.92;77.45;94397.44;5111349;28;20209;-79
2023/06/14 06:00:57;;;;;;;14.65;9.98;;;;;;;20.76;78.82;94392.41;5121046;27;20231;-78
2023/06/14 06:03:24;;;;;;;16.17;10.70;;;;;;;21.14;78.16;94393.44;5131405;27;20201;-79
2023/06/14 06:05:51;;;;;;;12.23;10.23;;;;;;;21.08;76.80;94384.00;5131352;27;20286;-77
2023/06/14 06:08:18;;;;;;;15.68;11.07;;;;;;;20.94;78.20;94392.34;5131421;27;20560;-78
2023/06/14 06:10:45;;;;;;;13.77;10.27;;;;;;;21.27;77.64;94391.84;5122874;27;20707;-80
2023/06/14 06:13:21;;;;;;;;;;;;;;;;;;;;;
2023/06/14 06:16:00;;;;;;;15.20;10.45;;;;;;;20.26;80.96;94394.44;5101356;27;20209;-80
2023/06/14 06:18:27;;;;;;;12.80;11.32;;;;;;;20.31;79.35;94396.81;5131980;27;20249;-80
2023/06/14 06:20:54;;;;;;;14.32;11.30;;;;;;;20.54;79.70;94405.44;5131041;27;20201;-78
2023/06/14 06:23:21;;;;;;;13.88;10.63;;;;;;;20.45;77.91;94396.81;5132061;27;20265;-78
2023/06/14 06:25:47;;;;;;;13.80;10.07;;;;;;;20.50;77.73;94399.13;5131306;27;20550;-79
2023/06/14 06:28:14;;;;;;;12.52;10.18;;;;;;;20.19;80.02;94399.97;5131728;27;20288;-79
2023/06/14 06:30:41;;;;;;;14.43;11.40;;;;;;;19.81;81.82;94407.81;5131715;27;20212;-79
2023/06/14 06:33:09;;;;;;;14.30;10.93;;;;;;;19.45;83.69;94411.66;5131485;27;20233;-79
2023/06/14 06:35:36;;;;;;;15.73;11.60;;;;;;;19.32;85.83;94408.47;5131262;27;20253;-80
2023/06/14 06:38:03;;;;;;;16.02;11.90;;;;;;;19.09;88.11;94417.03;5131597;27;20211;-79
2023/06/14 06:40:30;;;;;;;17.55;12.15;;;;;;;19.40;87.38;94414.78;5130985;27;20240;-79
2023/06/14 06:42:57;;;;;;;14.48;11.80;;;;;;;19.29;86.90;94413.94;5130844;27;20225;-79
2023/06/14 06:45:24;;;;;;;18.00;12.13;;;;;;;19.61;85.49;94414.84;5131128;27;20556;-79
2023/06/14 06:47:51;;;;;;;16.98;11.80;;;;;;;19.29;85.66;94419.44;5130995;27;20315;-79
2023/06/14 06:50:19;;;;;;;17.23;11.82;;;;;;;19.29;86.13;94413.94;5129125;27;20208;-80
2023/06/14 06:52:46;;;;;;;18.13;12.38;;;;;;;19.22;87.55;94422.19;5110926;28;20275;-80
2023/06/14 06:55:13;;;;;;;17.88;11.95;;;;;;;19.17;87.93;94418.63;5109995;28;20217;-80
2023/06/14 06:57:40;;;;;;;15.90;12.55;;;;;;;19.32;86.77;94415.94;5119654;27;20197;-80
2023/06/14 07:00:09;;;;;;;21.08;12.70;;;;;;;19.59;87.05;94417.19;5104201;27;20202;-79
2023/06/14 07:02:36;;;;;;;16.55;12.45;;;;;;;19.80;85.65;94411.75;5131349;27;20208;-79
2023/06/14 07:05:03;;;;;;;16.10;11.88;;;;;;;20.14;83.26;94414.09;5130790;27;20205;-79
2023/06/14 07:07:31;;;;;;;18.52;11.75;;;;;;;20.18;82.65;94412.13;5121624;27;20198;-81
2023/06/14 07:09:58;;;;;;;15.60;9.80;;;;;;;20.42;80.42;94408.59;5127395;27;20213;-81
2023/06/14 07:12:25;;;;;;;19.77;12.23;;;;;;;21.03;78.19;94409.25;5130810;27;20315;-80
2023/06/14 07:14:52;;;;;;;16.83;11.70;;;;;;;21.88;74.03;94408.00;5130778;27;20205;-80
2023/06/14 07:17:19;;;;;;;15.05;10.90;;;;;;;23.38;67.49;94395.06;5130955;27;20224;-80
2023/06/14 07:19:45;;;;;;;15.80;11.27;;;;;;;25.72;60.54;94392.22;5130432;27;20616;-80
2023/06/14 07:22:12;;;;;;;11.75;10.10;;;;;;;27.57;55.04;94382.75;5130419;27;20227;-82
2023/06/14 07:24:41;;;;;;;13.70;11.00;;;;;;;27.95;54.12;94385.53;5116195;27;20201;-80
2023/06/14 07:27:08;;;;;;;14.52;10.73;;;;;;;26.90;56.91;94391.72;5118749;27;20563;-80
2023/06/14 07:29:35;;;;;;;13.40;10.95;;;;;;;26.09;58.78;94394.56;5122840;27;20259;-80
2023/06/14 07:32:02;;;;;;;14.43;11.70;;;;;;;24.36;63.34;94398.81;5120272;27;20512;-79
2023/06/14 07:34:29;;;;;;;13.95;11.93;;;;;;;24.54;63.63;94393.75;5130640;27;20212;-77
2023/06/14 07:36:56;;;;;;;14.27;11.82;;;;;;;24.31;64.88;94391.78;5130850;27;20273;-80
2023/06/14 07:39:23;;;;;;;13.70;11.55;;;;;;;24.67;63.55;94394.69;5111620;27;20205;-80
2023/06/14 07:41:51;;;;;;;15.73;12.38;;;;;;;24.08;64.05;94395.25;5102794;28;20199;-79
2023/06/14 07:44:17;;;;;;;15.52;11.60;;;;;;;23.97;64.95;94393.88;5105866;27;21195;-80
2023/06/14 07:46:45;;;;;;;15.15;11.80;;;;;;;23.31;68.18;94397.94;5101395;28;20202;-81
2023/06/14 07:49:12;;;;;;;14.43;11.52;;;;;;;23.23;68.87;94402.00;5100796;28;20634;-80
2023/06/14 07:51:39;;;;;;;13.93;11.90;;;;;;;23.08;69.08;94400.59;5103079;28;20200;-81
2023/06/14 07:54:07;;;;;;;15.38;11.95;;;;;;;23.02;69.52;94410.53;5105784;28;20202;-80
2023/06/14 07:56:34;;;;;;;12.93;10.48;;;;;;;24.25;66.52;94400.97;5103559;28;20986;-80
2023/06/14 07:59:02;;;;;;;17.73;12.93;;;;;;;23.55;67.21;94406.34;5104381;28;20648;-79
2023/06/14 08:01:29;;;;;;;14.20;11.57;;;;;;;23.39;68.33;94410.47;5102225;28;20645;-78
2023/06/14 08:03:55;;;;;;;17.67;12.32;;;;;;;23.62;68.83;94406.25;5104568;28;20202;-80
2023/06/14 08:06:22;;;;;;;17.50;12.50;;;;;;;22.94;69.74;94411.81;5098970;28;20611;-80
2023/06/14 08:08:49;;;;;;;18.23;11.88;;;;;;;23.24;67.35;94422.09;5103665;28;20202;-82
2023/06/14 08:11:16;;;;;;;16.35;11.48;;;;;;;24.45;63.80;94415.69;5101959;28;20210;-81
2023/06/14 08:13:42;;;;;;;15.98;11.20;;;;;;;24.64;64.08;94426.00;5101237;28;20230;-81
2023/06/14 08:16:11;;;;;;;16.25;12.10;;;;;;;23.66;65.65;94429.09;5102670;28;20209;-79
2023/06/14 08:18:37;;;;;;;15.27;11.63;;;;;;;24.03;66.43;94431.75;5105471;28;20201;-79
2023/06/14 08:21:04;;;;;;;14.20;11.57;;;;;;;24.93;62.87;94425.50;5102020;28;20202;-80
2023/06/14 08:23:31;;;;;;;16.05;11.68;;;;;;;24.86;61.25;94426.44;5101499;28;20221;-81
2023/06/14 08:25:58;;;;;;;15.77;11.90;;;;;;;25.23;60.67;94428.13;5103424;28;20198;-80
2023/06/14 08:28:25;;;;;;;14.43;10.98;;;;;;;24.81;62.70;94424.13;5103072;28;20207;-80
2023/06/14 08:30:52;;;;;;;14.63;11.13;;;;;;;24.27;62.56;94434.56;5107671;27;20195;-81
2023/06/14 08:33:20;;;;;;;15.07;11.35;;;;;;;24.27;65.23;94429.03;5104421;27;20628;-81
2023/06/14 08:35:47;;;;;;;13.85;10.88;;;;;;;24.90;62.10;94431.88;5106109;28;20238;-80
2023/06/14 08:38:13;;;;;;;12.95;10.05;;;;;;;24.73;62.82;94434.56;5105945;27;20594;-80
2023/06/14 08:40:42;;;;;;;15.38;10.45;;;;;;;25.00;61.60;94430.94;5108725;27;20241;-80
2023/06/14 08:43:09;;;;;;;14.30;9.98;;;;;;;25.54;59.82;94419.56;5106589;27;20708;-79
2023/06/14 08:45:35;;;;;;;13.52;10.63;;;;;;;24.82;61.00;94425.69;5102018;28;20270;-78
2023/06/14 08:48:03;;;;;;;13.68;11.98;;;;;;;23.75;63.33;94426.63;5104888;27;20248;-78
2023/06/14 08:50:33;;;;;;;14.45;11.18;;;;;;;24.21;61.67;94419.59;5106046;28;20193;-79
2023/06/14 08:53:02;;;;;;;13.48;11.00;;;;;;;24.83;60.25;94421.72;5105856;28;20740;-81
2023/06/14 08:55:30;;;;;;;14.70;11.07;;;;;;;25.05;59.06;94416.56;5103599;27;20202;-82
2023/06/14 08:57:58;;;;;;;15.55;10.85;;;;;;;26.29;57.19;94415.94;5111935;27;20635;-82
2023/06/14 09:00:26;;;;;;;13.93;10.68;;;;;;;27.20;55.97;94409.19;5114799;27;20296;-83
2023/06/14 09:02:57;;;;;;;11.48;9.77;;;;;;;25.75;56.98;94419.13;5111039;28;20316;-79
2023/06/14 09:05:25;;;;;;;13.23;9.73;;;;;;;25.54;58.49;94422.34;5112263;28;20266;-80
2023/06/14 09:07:54;;;;;;;15.27;11.80;;;;;;;24.90;58.71;94420.78;5113572;27;20668;-84
2023/06/14 09:10:22;;;;;;;12.95;11.15;;;;;;;25.01;58.52;94410.34;5115478;28;20259;-83
2023/06/14 09:12:49;;;;;;;14.23;10.95;;;;;;;25.43;58.38;94406.69;5114669;27;20282;-83
2023/06/14 09:15:16;;;;;;;11.98;9.13;;;;;;;26.57;54.59;94409.66;5098760;28;20217;-82
2023/06/14 09:17:44;;;;;;;13.05;9.68;;;;;;;27.05;54.53;94396.94;5125920;27;20193;-83
2023/06/14 09:20:13;;;;;;;13.40;11.07;;;;;;;27.03;53.27;94404.94;5132603;27;20209;-84
2023/06/14 09:22:41;;;;;;;15.68;11.60;;;;;;;26.66;53.80;94404.25;5112601;27;20292;-83
2023/06/14 09:25:11;;;;;;;12.73;9.20;;;;;;;26.43;57.22;94401.69;5113349;28;20258;-83
2023/06/14 09:27:39;;;;;;;12.63;10.02;;;;;;;27.24;54.52;94393.19;5125361;27;20198;-83
2023/06/14 09:30:09;;;;;;;13.13;10.50;;;;;;;26.82;53.89;94407.00;5121542;27;20201;-79
2023/06/14 09:32:38;;;;;;;12.50;11.20;;;;;;;25.93;55.98;94408.41;5115574;27;20649;-85
2023/06/14 09:35:06;;;;;;;14.00;10.73;;;;;;;25.47;58.52;94409.38;5107664;27;20200;-84
2023/06/14 09:37:34;;;;;;;13.85;11.45;;;;;;;24.88;59.18;94406.56;5108376;27;20293;-83
2023/06/14 09:40:01;;;;;;;13.82;11.40;;;;;;;25.30;57.94;94399.44;5108276;27;20289;-83
2023/06/14 09:42:29;;;;;;;15.05;10.77;;;;;;;25.23;57.47;94400.38;5105530;27;20636;-82
2023/06/14 09:44:58;;;;;;;12.85;9.82;;;;;;;25.46;58.52;94391.97;5102437;28;20603;-83
2023/06/14 09:47:25;;;;;;;15.63;11.00;;;;;;;24.93;57.79;94395.81;5106000;28;20198;-83
2023/06/14 09:49:54;;;;;;;11.65;10.45;;;;;;;24.95;59.02;94395.41;5105558;28;20190;-80
2023/06/14 09:52:22;;;;;;;18.00;12.10;;;;;;;24.94;58.05;94393.84;5105868;27;20206;-82
2023/06/14 09:54:49;;;;;;;12.70;10.25;;;;;;;25.66;57.50;94388.41;5111964;27;20609;-83
2023/06/14 09:57:17;;;;;;;13.55;10.07;;;;;;;26.17;55.32;94389.59;5105832;28;20337;-83
2023/06/14 09:59:47;;;;;;;12.95;10.52;;;;;;;26.40;55.55;94386.66;5101178;28;20205;-81
2023/06/14 10:02:22;;;;;;;11.13;9.52;;;;;;;26.39;55.43;94385.09;5105804;28;20194;-82
2023/06/14 10:04:54;;;;;;;12.93;11.10;;;;;;;25.92;55.61;94384.63;5103860;27;20250;-82
2023/06/14 10:07:21;;;;;;;14.32;10.85;;;;;;;25.48;57.36;94378.44;5102011;28;20186;-83
2023/06/14 10:09:49;;;;;;;13.95;10.68;;;;;;;26.03;56.46;94371.28;5105305;27;20194;-82
2023/06/14 10:12:21;;;;;;;14.25;10.98;;;;;;;25.30;57.10;94377.25;5103931;27;20554;-77
2023/06/14 10:14:50;;;;;;;13.32;10.80;;;;;;;25.12;57.55;94372.09;5108593;27;20192;-83
2023/06/14 10:17:27;;;;;;;14.20;11.35;;;;;;;25.25;58.42;94367.47;5101860;28;20194;-83
2023/06/14 10:20:03;;;;;;;14.75;10.40;;;;;;;25.66;59.89;94355.91;5104908;28;20197;-82
2023/06/14 10:22:35;;;;;;;13.07;11.65;;;;;;;25.01;57.50;94352.13;5104432;27;20190;-82
2023/06/14 10:25:03;;;;;;;15.65;11.10;;;;;;;25.21;58.12;94355.66;5106559;28;20664;-83
2023/06/14 10:27:30;;;;;;;13.48;10.60;;;;;;;25.27;58.55;94355.94;5111101;27;20656;-84
2023/06/14 10:30:06;;;;;;;12.32;10.73;;;;;;;25.84;56.38;94361.03;5103127;27;20247;-83
2023/06/14 10:32:33;;;;;;;13.57;10.82;;;;;;;26.35;56.37;94358.66;5104943;27;20197;-83
2023/06/14 10:35:02;;;;;;;13.73;10.75;;;;;;;26.12;55.10;94365.13;5103897;27;20194;-84
2023/06/14 10:37:29;;;;;;;13.20;11.32;;;;;;;25.38;56.84;94357.28;5102160;28;20198;-82
2023/06/14 10:39:56;;;;;;;13.50;11.60;;;;;;;25.20;57.84;94356.88;5105975;28;20201;-82
2023/06/14 10:42:23;;;;;;;13.98;10.88;;;;;;;26.33;55.70;94358.28;5105266;27;20213;-83
2023/06/14 10:44:52;;;;;;;14.32;10.90;;;;;;;26.61;54.73;94352.00;5103964;28;20249;-83
2023/06/14 10:47:26;;;;;;;11.95;10.75;;;;;;;27.25;54.06;94333.56;5107913;27;20197;-82
2023/06/14 10:49:54;;;;;;;15.02;10.43;;;;;;;27.58;53.25;94346.13;5105252;28;20212;-83
2023/06/14 10:52:29;;;;;;;12.45;9.40;;;;;;;27.38;53.52;94333.56;5103612;28;20646;-83
2023/06/14 10:55:14;;;;;;;11.15;9.95;;;;;;;26.04;53.97;94342.31;5103947;27;20247;-83
2023/06/14 10:57:43;;;;;;;11.57;9.55;;;;;;;25.87;57.68;94337.19;5105058;27;20198;-83
2023/06/14 11:00:16;;;;;;;11.30;10.00;;;;;;;25.73;55.37;94332.75;5105086;28;20436;-81
2023/06/14 11:03:26;;;;;;;11.50;9.57;;;;;;;25.58;55.50;94331.47;5103952;27;20194;-84
2023/06/14 11:05:55;;;;;;;11.35;9.38;;;;;;;25.71;56.17;94319.28;5105201;28;20669;-83
2023/06/14 11:08:50;;;;;;;11.65;9.52;;;;;;;25.98;56.48;94332.16;5103640;28;20202;-84
2023/06/14 11:11:18;;;;;;;12.18;9.27;;;;;;;26.52;55.80;94324.03;5106617;27;20284;-83
2023/06/14 11:13:46;;;;;;;10.63;9.23;;;;;;;26.73;53.82;94320.72;5106726;28;20225;-83
2023/06/14 11:16:13;;;;;;;9.85;8.88;;;;;;;26.74;54.83;94316.72;5104482;28;20614;-83
2023/06/14 11:18:41;;;;;;;11.45;8.82;;;;;;;27.18;53.61;94312.31;5102056;28;20202;-83
2023/06/14 11:21:09;;;;;;;10.18;8.82;;;;;;;26.02;54.02;94322.53;5102976;27;20282;-83
2023/06/14 11:23:36;;;;;;;12.05;8.55;;;;;;;26.02;55.93;94321.75;5103378;28;20297;-83
2023/06/14 11:26:04;;;;;;;10.02;8.85;;;;;;;25.47;55.55;94326.94;5101171;27;20201;-81
2023/06/14 11:28:39;;;;;;;10.15;9.13;;;;;;;25.71;55.87;94318.50;5105514;28;20652;-82